Time;durP1;ratioP1;P1;durP2;ratioP2;P2;SDS_P1;SDS_P2;PMS_P1;PMS_P2;Temp;Humidity;BMP_temperature;BMP_pressure;BME280_temperature;BME280_humidity;BME280_pressure;Samples;Min_cycle;Max_cycle;Signal;HPM_P1;HPM_P2
2021/08/23 00:01:57;;;;;;;13.13;6.05;;;11.20;99.90;;;;;;5075152;28;20492;-79
2021/08/23 00:04:23;;;;;;;15.60;7.53;;;11.20;99.90;;;;;;5074654;28;20499;-80
2021/08/23 00:06:48;;;;;;;16.98;6.97;;;11.20;99.90;;;;;;5053691;28;20033;-79
2021/08/23 00:09:14;;;;;;;12.45;5.45;;;11.10;99.90;;;;;;5055031;28;20031;-80
2021/08/23 00:11:39;;;;;;;11.13;6.57;;;11.10;99.90;;;;;;5054540;28;20025;-79
2021/08/23 00:14:05;;;;;;;8.65;6.20;;;11.00;99.90;;;;;;5054766;28;20055;-79
2021/08/23 00:16:30;;;;;;;15.88;7.85;;;11.00;99.90;;;;;;5069656;28;20503;-80
2021/08/23 00:18:56;;;;;;;16.25;7.57;;;11.00;99.90;;;;;;5074830;28;20017;-79
2021/08/23 00:21:24;;;;;;;13.52;7.05;;;11.10;99.90;;;;;;5074812;28;20392;-79
2021/08/23 00:23:53;;;;;;;19.42;7.95;;;11.00;99.90;;;;;;5074592;28;20032;-79
2021/08/23 00:26:19;;;;;;;19.98;7.85;;;11.10;99.90;;;;;;5074341;28;20039;-79
2021/08/23 00:28:44;;;;;;;13.88;8.40;;;11.20;99.90;;;;;;5074686;28;20507;-79
2021/08/23 00:31:10;;;;;;;14.13;8.38;;;11.10;99.90;;;;;;5074191;28;20113;-78
2021/08/23 00:33:36;;;;;;;15.25;9.40;;;11.10;99.90;;;;;;5056668;28;20021;-80
2021/08/23 00:36:01;;;;;;;17.85;9.73;;;11.10;99.90;;;;;;5074012;28;20469;-79
2021/08/23 00:38:27;;;;;;;16.92;8.85;;;11.10;99.90;;;;;;5074537;28;20025;-79
2021/08/23 00:40:52;;;;;;;15.23;8.45;;;11.10;99.90;;;;;;5056510;28;20116;-79
2021/08/23 00:43:18;;;;;;;12.90;8.38;;;11.10;99.90;;;;;;5074393;28;20113;-79
2021/08/23 00:45:45;;;;;;;18.65;8.40;;;11.00;99.90;;;;;;5073788;28;20063;-79
2021/08/23 00:48:10;;;;;;;13.25;7.68;;;10.90;99.90;;;;;;5074233;28;20028;-79
2021/08/23 00:50:36;;;;;;;16.77;9.10;;;10.80;99.90;;;;;;5074194;28;20031;-79
2021/08/23 00:53:03;;;;;;;27.92;10.43;;;10.80;99.90;;;;;;5056309;28;20021;-79
2021/08/23 00:55:31;;;;;;;13.10;8.50;;;10.80;99.90;;;;;;5073896;28;20492;-79
2021/08/23 00:57:57;;;;;;;14.82;9.63;;;10.70;99.90;;;;;;5073347;28;20028;-79
2021/08/23 01:00:23;;;;;;;17.83;10.27;;;10.70;99.90;;;;;;5056089;28;20035;-79
2021/08/23 01:02:58;;;;;;;14.93;8.88;;;10.60;99.90;;;;;;5074145;28;20024;-79
2021/08/23 01:05:30;;;;;;;15.85;8.02;;;10.70;99.90;;;;;;5073854;28;20492;-79
2021/08/23 01:07:58;;;;;;;12.45;7.95;;;10.70;99.90;;;;;;5073633;28;20470;-79
2021/08/23 01:10:38;;;;;;;20.65;8.40;;;10.50;99.90;;;;;;5055236;28;20382;-79
2021/08/23 01:13:06;;;;;;;30.58;11.10;;;10.50;99.90;;;;;;5055966;28;20032;-79
2021/08/23 01:15:33;;;;;;;12.20;8.18;;;10.50;99.90;;;;;;5055703;28;20073;-79
2021/08/23 01:17:59;;;;;;;15.68;9.32;;;10.50;99.90;;;;;;5055137;28;20112;-79
2021/08/23 01:20:25;;;;;;;18.67;9.38;;;10.50;99.90;;;;;;5055777;28;20067;-79
2021/08/23 01:22:53;;;;;;;19.27;9.27;;;10.50;99.90;;;;;;5073601;28;20036;-79
2021/08/23 01:25:28;;;;;;;14.90;9.20;;;10.40;99.90;;;;;;5073326;28;20024;-79
2021/08/23 01:28:20;;;;;;;17.58;8.90;;;10.40;99.90;;;;;;5055414;28;20588;-79
2021/08/23 01:31:06;;;;;;;15.13;8.73;;;10.50;99.90;;;;;;5073352;28;20036;-79
2021/08/23 01:33:32;;;;;;;17.00;9.32;;;10.40;99.90;;;;;;5055545;28;20027;-79
2021/08/23 01:35:59;;;;;;;17.05;8.05;;;10.40;99.90;;;;;;5073149;28;20111;-80
2021/08/23 01:38:24;;;;;;;14.77;8.57;;;10.30;99.90;;;;;;5055121;28;20078;-79
2021/08/23 01:41:01;;;;;;;14.95;8.63;;;10.30;99.90;;;;;;5073368;28;20036;-79
2021/08/23 01:43:26;;;;;;;19.10;9.32;;;10.30;99.90;;;;;;5055244;28;20058;-79
2021/08/23 01:45:52;;;;;;;32.70;11.70;;;10.20;99.90;;;;;;5072941;28;20028;-79
2021/08/23 01:48:17;;;;;;;24.85;10.13;;;10.30;99.90;;;;;;5072913;28;20025;-79
2021/08/23 01:50:43;;;;;;;26.27;11.38;;;10.40;99.90;;;;;;5073113;28;20107;-79
2021/08/23 01:53:08;;;;;;;17.77;8.65;;;10.40;99.90;;;;;;5073048;28;20059;-79
2021/08/23 01:55:34;;;;;;;23.90;9.93;;;10.30;99.90;;;;;;5072806;28;20060;-79
2021/08/23 01:58:02;;;;;;;20.60;10.90;;;10.30;99.90;;;;;;5072926;28;20044;-79
2021/08/23 02:00:27;;;;;;;20.08;10.13;;;10.30;99.90;;;;;;5072617;28;20554;-79
2021/08/23 02:02:53;;;;;;;25.58;10.93;;;10.40;99.90;;;;;;5072877;28;20036;-79
2021/08/23 02:05:18;;;;;;;22.30;10.32;;;10.40;99.90;;;;;;5072366;28;20457;-79
2021/08/23 02:07:44;;;;;;;20.70;10.43;;;10.40;99.90;;;;;;5072629;28;20500;-78
2021/08/23 02:10:10;;;;;;;20.70;10.23;;;10.60;99.90;;;;;;5054004;28;20021;-79
2021/08/23 02:12:35;;;;;;;16.80;9.07;;;10.70;99.90;;;;;;5072551;28;20024;-79
2021/08/23 02:15:01;;;;;;;16.85;9.40;;;10.70;99.90;;;;;;5072333;28;20032;-79
2021/08/23 02:17:27;;;;;;;36.50;10.13;;;10.70;99.90;;;;;;5054363;28;20025;-79
2021/08/23 02:19:52;;;;;;;21.13;9.45;;;10.60;99.90;;;;;;5072531;28;20501;-79
2021/08/23 02:22:18;;;;;;;17.90;8.65;;;10.50;99.90;;;;;;5054585;28;20033;-79
2021/08/23 02:24:43;;;;;;;15.60;8.63;;;10.40;99.90;;;;;;5072190;28;20047;-79
2021/08/23 02:27:09;;;;;;;18.50;8.25;;;10.50;99.90;;;;;;5072068;28;20397;-79
2021/08/23 02:29:35;;;;;;;17.92;7.93;;;10.40;99.90;;;;;;5054297;28;20043;-79
2021/08/23 02:32:00;;;;;;;15.15;7.97;;;10.40;99.90;;;;;;5054370;28;20032;-79
2021/08/23 02:34:26;;;;;;;20.60;8.48;;;10.40;99.90;;;;;;5072032;28;20021;-79
2021/08/23 02:36:51;;;;;;;18.95;9.30;;;10.50;99.90;;;;;;5071451;28;20086;-79
2021/08/23 02:39:17;;;;;;;11.73;7.72;;;10.60;99.90;;;;;;5072203;28;20042;-79
2021/08/23 02:41:43;;;;;;;11.88;7.43;;;10.50;99.90;;;;;;5072159;28;20090;-79
2021/08/23 02:44:08;;;;;;;14.10;7.68;;;10.40;99.90;;;;;;5053875;28;20028;-79
2021/08/23 02:46:34;;;;;;;29.25;8.93;;;10.30;99.90;;;;;;5053790;28;20028;-79
2021/08/23 02:48:59;;;;;;;16.08;7.78;;;10.20;99.90;;;;;;5054155;28;20078;-78
2021/08/23 02:51:25;;;;;;;10.90;7.30;;;10.20;99.90;;;;;;5054017;28;20563;-79
2021/08/23 02:53:50;;;;;;;11.40;7.57;;;10.20;99.90;;;;;;5071759;28;20032;-78
2021/08/23 02:56:16;;;;;;;14.23;8.57;;;10.20;99.90;;;;;;5071837;28;20073;-79
2021/08/23 02:58:41;;;;;;;14.80;7.40;;;10.10;99.90;;;;;;5071575;28;20025;-79
2021/08/23 03:01:07;;;;;;;15.52;6.88;;;10.10;99.90;;;;;;5071910;28;20370;-79
2021/08/23 03:03:35;;;;;;;12.43;7.30;;;10.00;99.90;;;;;;5071853;28;20024;-78
2021/08/23 03:06:01;;;;;;;21.63;7.68;;;9.90;99.90;;;;;;5052983;28;20064;-79
2021/08/23 03:08:26;;;;;;;8.25;5.72;;;9.90;99.90;;;;;;5071862;28;20107;-79
2021/08/23 03:10:54;;;;;;;10.15;6.30;;;9.90;99.90;;;;;;5071541;28;20082;-79
2021/08/23 03:13:21;;;;;;;9.57;6.65;;;9.80;99.90;;;;;;5071894;28;20021;-79
2021/08/23 03:15:48;;;;;;;10.23;6.15;;;9.80;99.90;;;;;;5053364;28;20024;-78
2021/08/23 03:18:14;;;;;;;9.73;5.82;;;9.70;99.90;;;;;;5071788;28;20016;-79
2021/08/23 03:20:39;;;;;;;8.75;5.85;;;9.70;99.90;;;;;;5071602;28;20033;-79
2021/08/23 03:23:05;;;;;;;11.65;6.07;;;9.60;99.90;;;;;;5053763;28;20025;-78
2021/08/23 03:25:30;;;;;;;10.98;5.85;;;9.50;99.90;;;;;;5071254;28;20028;-79
2021/08/23 03:27:56;;;;;;;13.50;5.82;;;9.50;99.90;;;;;;5071639;28;20054;-79
2021/08/23 03:30:21;;;;;;;8.82;5.55;;;9.50;99.90;;;;;;5053622;28;20090;-79
2021/08/23 03:32:47;;;;;;;13.50;6.15;;;9.40;99.90;;;;;;5071695;28;20031;-79
2021/08/23 03:35:12;;;;;;;10.43;6.07;;;9.50;99.90;;;;;;5053401;28;20121;-79
2021/08/23 03:37:38;;;;;;;14.60;7.45;;;9.50;99.90;;;;;;5053635;28;20184;-79
2021/08/23 03:40:04;;;;;;;14.07;7.82;;;9.50;99.90;;;;;;5053712;28;20425;-79
2021/08/23 03:42:30;;;;;;;12.30;7.20;;;9.50;99.90;;;;;;5071451;28;20069;-79
2021/08/23 03:44:55;;;;;;;17.98;7.32;;;9.50;99.90;;;;;;5053420;28;20032;-79
2021/08/23 03:47:21;;;;;;;16.15;7.65;;;9.40;99.90;;;;;;5071160;28;20063;-79
2021/08/23 03:49:47;;;;;;;12.65;6.90;;;9.40;99.90;;;;;;5053390;28;20028;-79
2021/08/23 03:52:12;;;;;;;15.38;6.93;;;9.30;99.90;;;;;;5071375;28;20023;-79
2021/08/23 03:54:38;;;;;;;13.25;7.85;;;9.30;99.90;;;;;;5053259;28;20037;-79
2021/08/23 03:57:04;;;;;;;12.82;8.18;;;9.30;99.90;;;;;;5071081;28;20420;-79
2021/08/23 03:59:29;;;;;;;9.90;6.97;;;9.30;99.90;;;;;;5071391;28;20052;-79
2021/08/23 04:01:55;;;;;;;12.23;7.93;;;9.30;99.90;;;;;;5071330;28;20021;-79
2021/08/23 04:04:21;;;;;;;11.55;7.65;;;9.30;99.90;;;;;;5053158;28;20370;-79
2021/08/23 04:06:47;;;;;;;16.05;8.52;;;9.20;99.90;;;;;;5070826;28;20144;-79
2021/08/23 04:09:13;;;;;;;15.05;7.75;;;9.20;99.90;;;;;;5053372;28;20111;-79
2021/08/23 04:11:39;;;;;;;15.43;8.00;;;9.20;99.90;;;;;;5070975;28;20027;-78
2021/08/23 04:14:04;;;;;;;12.82;6.95;;;9.20;99.90;;;;;;5070984;28;20033;-79
2021/08/23 04:16:30;;;;;;;12.82;7.82;;;9.20;99.90;;;;;;5070865;28;20377;-79
2021/08/23 04:18:55;;;;;;;16.63;8.32;;;9.10;99.90;;;;;;5070506;28;20032;-79
2021/08/23 04:21:21;;;;;;;11.15;6.85;;;9.10;99.90;;;;;;5071105;28;20032;-78
2021/08/23 04:23:46;;;;;;;15.93;7.35;;;9.00;99.90;;;;;;5070977;28;20036;-79
2021/08/23 04:26:12;;;;;;;14.45;8.18;;;9.00;99.90;;;;;;5071037;28;20074;-79
2021/08/23 04:28:38;;;;;;;13.55;7.95;;;9.00;99.90;;;;;;5070795;28;20067;-79
2021/08/23 04:31:04;;;;;;;16.65;8.63;;;9.00;99.90;;;;;;5070969;28;20025;-79
2021/08/23 04:33:30;;;;;;;14.82;9.60;;;9.00;99.90;;;;;;5072832;28;20032;-79
2021/08/23 04:35:55;;;;;;;16.98;10.57;;;9.00;99.90;;;;;;5056232;28;20067;-79
2021/08/23 04:38:21;;;;;;;26.90;10.40;;;9.30;99.90;;;;;;5074323;28;20029;-79
2021/08/23 04:40:47;;;;;;;22.95;11.95;;;9.40;99.90;;;;;;5074145;28;20036;-79
2021/08/23 04:43:12;;;;;;;26.45;12.10;;;9.50;99.90;;;;;;5074477;28;20024;-79
2021/08/23 04:45:38;;;;;;;30.10;15.27;;;9.60;99.90;;;;;;5074221;28;20107;-79
2021/08/23 04:48:04;;;;;;;25.85;12.75;;;9.80;99.90;;;;;;5056567;28;20103;-79
2021/08/23 04:50:29;;;;;;;23.00;12.45;;;10.10;99.90;;;;;;5073935;28;20496;-79
2021/08/23 04:52:55;;;;;;;26.13;11.02;;;10.10;99.90;;;;;;5056347;28;20503;-79
2021/08/23 04:55:20;;;;;;;22.92;11.85;;;10.20;99.90;;;;;;5073992;28;20032;-79
2021/08/23 04:57:46;;;;;;;23.17;12.65;;;10.20;99.90;;;;;;5056241;28;20024;-79
2021/08/23 05:00:12;;;;;;;26.13;12.45;;;10.20;99.90;;;;;;5073954;28;20582;-80
2021/08/23 05:02:38;;;;;;;28.98;13.63;;;10.30;99.90;;;;;;5074078;28;20028;-79
2021/08/23 05:05:05;;;;;;;20.52;11.85;;;10.30;99.90;;;;;;5055973;28;20048;-79
2021/08/23 05:07:31;;;;;;;35.85;14.00;;;10.40;99.90;;;;;;5055990;28;20024;-79
2021/08/23 05:09:56;;;;;;;29.95;14.23;;;10.40;99.90;;;;;;5055754;28;20051;-79
2021/08/23 05:12:22;;;;;;;30.63;14.95;;;10.60;99.90;;;;;;5073664;28;20032;-79
2021/08/23 05:14:47;;;;;;;32.88;15.20;;;10.70;99.90;;;;;;5073580;28;20051;-79
2021/08/23 05:17:13;;;;;;;30.58;15.18;;;10.80;99.90;;;;;;5055855;28;20552;-79
2021/08/23 05:19:38;;;;;;;32.20;14.77;;;10.80;99.90;;;;;;5073727;28;20039;-79
2021/08/23 05:22:04;;;;;;;34.88;14.68;;;10.90;99.90;;;;;;5073495;28;20088;-80
2021/08/23 05:24:30;;;;;;;26.42;14.13;;;10.90;99.90;;;;;;5055630;28;20028;-79
2021/08/23 05:26:55;;;;;;;28.50;14.60;;;11.00;99.90;;;;;;5073582;28;20030;-79
2021/08/23 05:29:21;;;;;;;26.85;15.05;;;11.10;99.90;;;;;;5073554;28;20506;-79
2021/08/23 05:31:46;;;;;;;34.35;17.05;;;11.10;99.90;;;;;;5055256;28;20077;-79
2021/08/23 05:34:12;;;;;;;33.10;16.98;;;11.20;99.90;;;;;;5073257;28;20067;-79
2021/08/23 05:36:37;;;;;;;36.33;18.52;;;11.30;99.90;;;;;;5073251;28;20075;-80
2021/08/23 05:39:03;;;;;;;32.90;17.23;;;11.50;99.90;;;;;;5055476;28;20028;-79
2021/08/23 05:41:28;;;;;;;44.42;17.80;;;11.60;99.90;;;;;;5073113;28;20031;-79
2021/08/23 05:43:54;;;;;;;38.97;17.60;;;11.80;99.90;;;;;;5071771;28;20043;-79
2021/08/23 05:46:23;;;;;;;43.10;18.60;;;11.90;99.90;;;;;;5072732;28;20036;-79
2021/08/23 05:48:49;;;;;;;41.22;20.45;;;12.00;99.90;;;;;;5073183;28;20056;-79
2021/08/23 05:51:16;;;;;;;42.85;21.67;;;12.20;99.90;;;;;;5073137;28;20075;-79
2021/08/23 05:53:43;;;;;;;51.78;22.00;;;12.30;99.90;;;;;;5072499;28;20048;-78
2021/08/23 05:56:09;;;;;;;48.08;23.20;;;12.40;99.90;;;;;;5055120;28;20025;-80
2021/08/23 05:58:35;;;;;;;50.78;21.83;;;12.50;99.90;;;;;;5074449;28;20031;-78
2021/08/23 06:01:02;;;;;;;53.45;23.00;;;12.70;99.90;;;;;;5050324;28;20437;-78
2021/08/23 06:03:28;;;;;;;39.75;20.70;;;12.80;99.90;;;;;;5067033;28;20032;-78
2021/08/23 06:05:54;;;;;;;46.03;22.40;;;12.90;99.90;;;;;;5072052;28;20025;-79
2021/08/23 06:08:19;;;;;;;46.95;23.25;;;13.00;99.90;;;;;;5054184;28;20024;-79
2021/08/23 06:10:48;;;;;;;37.90;20.85;;;13.20;99.90;;;;;;5072242;28;20115;-79
2021/08/23 06:13:13;;;;;;;43.28;21.30;;;13.30;99.90;;;;;;5072531;28;20024;-79
2021/08/23 06:15:39;;;;;;;43.15;22.40;;;13.40;99.90;;;;;;5072136;28;20054;-78
2021/08/23 06:18:04;;;;;;;39.70;22.80;;;13.40;99.90;;;;;;5072245;28;20033;-79
2021/08/23 06:20:30;;;;;;;46.20;25.63;;;13.80;99.90;;;;;;5054583;28;20056;-79
2021/08/23 06:22:57;;;;;;;51.10;26.00;;;13.90;99.90;;;;;;5054112;28;20055;-79
2021/08/23 06:25:23;;;;;;;45.80;24.38;;;14.00;99.90;;;;;;5053939;28;20067;-79
2021/08/23 06:27:48;;;;;;;37.25;22.52;;;14.10;99.90;;;;;;5071978;28;20051;-78
2021/08/23 06:30:14;;;;;;;43.70;22.33;;;14.30;99.90;;;;;;5054254;28;20020;-79
2021/08/23 06:32:39;;;;;;;47.88;21.85;;;14.40;99.90;;;;;;5071960;28;20024;-79
2021/08/23 06:35:06;;;;;;;41.00;21.42;;;14.60;99.90;;;;;;5071580;28;20024;-79
2021/08/23 06:37:31;;;;;;;34.42;20.73;;;14.60;99.90;;;;;;5053615;28;20020;-79
2021/08/23 06:39:58;;;;;;;40.70;21.35;;;14.80;99.90;;;;;;5071717;28;20020;-79
2021/08/23 06:42:24;;;;;;;42.78;21.67;;;15.00;99.90;;;;;;5071656;28;20501;-79
2021/08/23 06:44:50;;;;;;;36.15;20.77;;;15.10;99.90;;;;;;5071810;28;20139;-79
2021/08/23 06:47:16;;;;;;;38.60;20.38;;;15.10;99.90;;;;;;5053739;28;20094;-79
2021/08/23 06:49:42;;;;;;;36.83;20.52;;;15.20;99.90;;;;;;5072018;28;20017;-79
2021/08/23 06:52:08;;;;;;;34.40;17.90;;;15.40;99.90;;;;;;5053949;28;20023;-81
2021/08/23 06:54:34;;;;;;;24.85;17.15;;;15.40;99.90;;;;;;5071669;28;20029;-80
2021/08/23 06:57:01;;;;;;;22.80;16.05;;;15.60;99.90;;;;;;5071454;28;20029;-81
2021/08/23 06:59:27;;;;;;;28.73;13.93;;;15.60;99.90;;;;;;5071974;28;20023;-79
2021/08/23 07:01:53;;;;;;;21.13;15.00;;;15.90;99.90;;;;;;5053871;28;20020;-78
2021/08/23 07:04:19;;;;;;;21.77;14.80;;;16.00;99.90;;;;;;5071333;28;20086;-78
2021/08/23 07:06:44;;;;;;;17.10;11.30;;;16.10;99.90;;;;;;5053768;28;20024;-78
2021/08/23 07:09:10;;;;;;;22.52;11.88;;;16.10;99.90;;;;;;5053393;28;20059;-78
2021/08/23 07:11:36;;;;;;;23.48;12.20;;;16.10;99.90;;;;;;5065903;28;20102;-79
2021/08/23 07:14:01;;;;;;;19.60;10.73;;;16.20;99.90;;;;;;5047324;28;20020;-79
2021/08/23 07:16:27;;;;;;;18.35;9.38;;;16.30;99.90;;;;;;5070586;28;20052;-80
2021/08/23 07:18:53;;;;;;;13.10;9.02;;;16.50;99.90;;;;;;5071417;28;20078;-80
2021/08/23 07:21:18;;;;;;;14.38;7.55;;;16.70;99.90;;;;;;5071731;28;20393;-80
2021/08/23 07:23:44;;;;;;;15.80;7.85;;;16.70;99.90;;;;;;5070928;28;20507;-80
2021/08/23 07:26:09;;;;;;;9.07;6.80;;;16.90;99.90;;;;;;5053481;28;20473;-79
2021/08/23 07:28:35;;;;;;;18.38;6.93;;;17.10;99.90;;;;;;5071689;28;20036;-79
2021/08/23 07:31:01;;;;;;;14.13;6.82;;;17.20;99.90;;;;;;5053438;28;20025;-80
2021/08/23 07:33:26;;;;;;;13.40;6.22;;;17.30;99.90;;;;;;5053475;28;20025;-80
2021/08/23 07:35:52;;;;;;;14.90;6.72;;;17.40;99.90;;;;;;5052903;28;20174;-80
2021/08/23 07:38:18;;;;;;;7.03;5.20;;;17.60;99.90;;;;;;5071580;28;20131;-80
2021/08/23 07:40:43;;;;;;;8.60;5.05;;;17.70;99.90;;;;;;5071446;28;20032;-80
2021/08/23 07:43:09;;;;;;;12.52;4.60;;;18.00;99.90;;;;;;5071525;28;20036;-81
2021/08/23 07:45:35;;;;;;;9.98;5.47;;;18.00;99.90;;;;;;5070892;28;20044;-82
2021/08/23 07:48:01;;;;;;;10.77;4.95;;;18.10;99.90;;;;;;5052585;28;20115;-82
2021/08/23 07:50:27;;;;;;;10.40;3.95;;;18.40;99.90;;;;;;5053426;28;20151;-80
2021/08/23 07:52:52;;;;;;;8.38;3.80;;;18.50;99.90;;;;;;5071305;28;20048;-80
2021/08/23 07:55:18;;;;;;;5.50;3.50;;;18.60;99.90;;;;;;5070943;28;20544;-79
2021/08/23 07:57:49;;;;;;;5.43;3.15;;;18.80;99.90;;;;;;5071324;28;20012;-81
2021/08/23 08:00:17;;;;;;;9.77;3.20;;;19.10;99.90;;;;;;5071297;28;20024;-81
2021/08/23 08:02:43;;;;;;;5.97;2.78;;;19.40;99.90;;;;;;5053558;28;20035;-81
2021/08/23 08:05:09;;;;;;;3.97;2.90;;;19.60;99.90;;;;;;5066503;28;20108;-82
2021/08/23 08:07:35;;;;;;;4.63;2.33;;;19.70;99.90;;;;;;5066692;28;20031;-81
2021/08/23 08:10:01;;;;;;;9.23;2.78;;;19.80;99.90;;;;;;5070237;28;20033;-82
2021/08/23 08:12:27;;;;;;;7.57;2.47;;;19.90;99.90;;;;;;5059170;28;20139;-84
2021/08/23 08:14:54;;;;;;;3.53;2.00;;;19.80;99.90;;;;;;5070752;28;20108;-83
2021/08/23 08:17:21;;;;;;;7.45;2.45;;;19.80;99.90;;;;;;5070477;28;20550;-81
2021/08/23 08:19:46;;;;;;;7.65;2.67;;;20.10;99.90;;;;;;5070198;28;20443;-82
2021/08/23 08:22:13;;;;;;;7.38;2.53;;;20.20;99.90;;;;;;5053519;28;20029;-83
2021/08/23 08:24:39;;;;;;;2.83;1.45;;;20.30;99.90;;;;;;5060781;28;20108;-83
2021/08/23 08:27:04;;;;;;;5.03;1.92;;;20.50;99.90;;;;;;5071358;28;20148;-82
2021/08/23 08:29:30;;;;;;;4.50;2.13;;;20.60;99.90;;;;;;5071455;28;20059;-82
2021/08/23 08:31:55;;;;;;;3.20;1.40;;;20.80;99.90;;;;;;5064731;28;20032;-83
2021/08/23 08:34:21;;;;;;;5.20;1.77;;;21.10;99.90;;;;;;5074440;28;20066;-83
2021/08/23 08:36:46;;;;;;;7.05;1.52;;;20.90;99.90;;;;;;5074533;28;20077;-82
2021/08/23 08:39:12;;;;;;;5.30;1.50;;;20.90;99.90;;;;;;5073370;28;20107;-81
2021/08/23 08:41:38;;;;;;;4.22;1.67;;;21.10;99.90;;;;;;5062908;28;20035;-84
2021/08/23 08:44:03;;;;;;;11.50;1.60;;;21.20;99.90;;;;;;5074451;28;20395;-84
2021/08/23 08:46:32;;;;;;;5.57;1.77;;;21.20;99.90;;;;;;5074261;28;20039;-83
2021/08/23 08:48:58;;;;;;;6.00;1.80;;;21.20;99.90;;;;;;5074435;28;20476;-84
2021/08/23 08:51:24;;;;;;;2.65;1.88;;;21.50;99.90;;;;;;5056250;28;20048;-82
2021/08/23 08:53:50;;;;;;;4.25;2.20;;;21.50;99.90;;;;;;5056455;28;20053;-86
2021/08/23 08:56:16;;;;;;;2.95;1.90;;;21.40;99.90;;;;;;5056221;28;20016;-83
2021/08/23 08:58:41;;;;;;;3.95;1.70;;;21.40;99.90;;;;;;5056370;28;20020;-82
2021/08/23 09:01:07;;;;;;;4.35;2.35;;;21.50;99.90;;;;;;5056036;28;20040;-83
2021/08/23 09:03:32;;;;;;;4.40;2.20;;;21.80;99.90;;;;;;5074135;28;20025;-85
2021/08/23 09:06:06;;;;;;;4.05;1.65;;;21.80;99.90;;;;;;5055754;28;20115;-82
2021/08/23 09:08:39;;;;;;;7.60;1.33;;;21.90;99.90;;;;;;5056210;28;20115;-83
2021/08/23 09:11:16;;;;;;;3.25;1.40;;;22.20;99.90;;;;;;5055529;28;20100;-83
2021/08/23 09:14:01;;;;;;;2.97;1.23;;;22.20;99.90;;;;;;5055100;28;20056;-82
2021/08/23 09:16:29;;;;;;;2.13;1.30;;;22.20;99.90;;;;;;5073897;28;20012;-82
2021/08/23 09:18:56;;;;;;;3.72;2.28;;;22.30;99.90;;;;;;5055317;28;20513;-82
2021/08/23 09:21:33;;;;;;;3.28;1.77;;;22.60;99.90;;;;;;5073732;28;20488;-82
2021/08/23 09:23:59;;;;;;;5.35;2.70;;;22.70;99.90;;;;;;5073268;28;20031;-82
2021/08/23 09:26:34;;;;;;;7.30;1.92;;;22.80;99.90;;;;;;5073461;28;20029;-82
2021/08/23 09:29:04;;;;;;;4.55;2.00;;;22.80;99.90;;;;;;5073599;28;20427;-80
2021/08/23 09:31:36;;;;;;;2.55;1.75;;;22.70;99.90;;;;;;5073380;28;20020;-81
2021/08/23 09:34:04;;;;;;;2.97;1.92;;;22.70;99.90;;;;;;5073102;28;20024;-82
2021/08/23 09:36:31;;;;;;;3.28;1.63;;;23.00;99.90;;;;;;5055389;28;20392;-81
2021/08/23 09:39:15;;;;;;;2.95;1.40;;;23.10;99.90;;;;;;5073510;28;20036;-82
2021/08/23 09:41:41;;;;;;;2.75;1.48;;;23.10;99.90;;;;;;5055387;28;20020;-81
2021/08/23 09:44:09;;;;;;;4.25;2.28;;;23.20;99.90;;;;;;5072670;28;20036;-81
2021/08/23 09:46:36;;;;;;;4.68;1.85;;;23.10;99.90;;;;;;5073521;28;20021;-82
2021/08/23 09:49:07;;;;;;;4.00;1.77;;;23.40;99.90;;;;;;5073332;28;20071;-81
2021/08/23 09:51:41;;;;;;;2.80;1.85;;;23.40;99.90;;;;;;5055152;28;20025;-81
2021/08/23 09:54:08;;;;;;;3.58;2.00;;;23.70;99.90;;;;;;5072674;28;20032;-82
2021/08/23 09:56:35;;;;;;;3.00;1.92;;;24.00;99.90;;;;;;5073005;28;20025;-81
2021/08/23 09:59:03;;;;;;;2.10;1.70;;;24.00;99.90;;;;;;5055113;28;20016;-81
2021/08/23 10:01:32;;;;;;;3.33;1.95;;;24.20;99.90;;;;;;5054978;28;20021;-84
2021/08/23 10:04:02;;;;;;;5.50;1.85;;;24.30;99.90;;;;;;5072633;28;20392;-83
2021/08/23 10:06:28;;;;;;;3.28;1.73;;;24.30;99.90;;;;;;5072606;28;20089;-86
2021/08/23 10:08:54;;;;;;;4.88;1.77;;;24.40;99.90;;;;;;5072768;28;20044;-84
2021/08/23 10:11:21;;;;;;;3.00;1.73;;;24.70;99.90;;;;;;5054327;28;20028;-82
2021/08/23 10:13:47;;;;;;;2.45;1.60;;;24.80;99.90;;;;;;5072291;28;20031;-82
2021/08/23 10:16:13;;;;;;;2.88;1.85;;;24.80;99.90;;;;;;5054417;28;20029;-79
2021/08/23 10:18:39;;;;;;;3.08;1.50;;;25.10;99.90;;;;;;5072043;28;20052;-81
2021/08/23 10:21:07;;;;;;;2.25;1.60;;;25.10;99.90;;;;;;5071971;28;20518;-81
2021/08/23 10:23:35;;;;;;;4.85;1.73;;;25.30;99.90;;;;;;5068631;28;20020;-81
2021/08/23 10:26:01;;;;;;;3.42;1.73;;;25.10;99.90;;;;;;5046670;28;20035;-81
2021/08/23 10:28:38;;;;;;;3.50;1.88;;;25.00;99.90;;;;;;5072124;28;20064;-80
2021/08/23 10:31:08;;;;;;;4.40;1.50;;;25.10;99.90;;;;;;5071753;28;20025;-82
2021/08/23 10:33:37;;;;;;;4.43;2.13;;;24.70;99.90;;;;;;5072338;28;20384;-82
2021/08/23 10:36:05;;;;;;;3.53;1.70;;;24.70;99.90;;;;;;5071942;28;20032;-82
2021/08/23 10:38:31;;;;;;;2.55;1.80;;;24.80;99.90;;;;;;5054438;28;20107;-82
2021/08/23 10:41:15;;;;;;;2.90;1.75;;;25.00;99.90;;;;;;5072316;28;20059;-83
2021/08/23 10:44:03;;;;;;;2.47;1.55;;;25.20;99.90;;;;;;5072153;28;20032;-81
2021/08/23 10:46:31;;;;;;;2.10;1.42;;;25.40;99.90;;;;;;5053967;28;20132;-81
2021/08/23 10:49:00;;;;;;;1.95;1.25;;;25.00;99.90;;;;;;5054090;28;20439;-81
2021/08/23 10:51:27;;;;;;;4.63;1.40;;;24.80;99.90;;;;;;5054049;28;20032;-81
2021/08/23 10:53:53;;;;;;;1.63;1.20;;;24.90;99.90;;;;;;5053858;28;20086;-81
2021/08/23 10:56:19;;;;;;;3.70;1.70;;;25.10;99.90;;;;;;5053564;28;20028;-81
2021/08/23 10:58:50;;;;;;;5.63;1.88;;;25.00;99.90;;;;;;5071574;28;20052;-82
2021/08/23 11:01:23;;;;;;;2.90;1.30;;;25.10;99.90;;;;;;5071950;28;20066;-84
2021/08/23 11:04:03;;;;;;;2.15;1.27;;;25.30;99.90;;;;;;5053784;28;20024;-82
2021/08/23 11:06:29;;;;;;;1.70;1.17;;;25.40;99.90;;;;;;5053894;28;20385;-84
2021/08/23 11:09:12;;;;;;;2.83;1.73;;;25.60;99.90;;;;;;5049076;28;20039;-82
2021/08/23 11:11:39;;;;;;;1.23;1.00;;;25.40;99.90;;;;;;5067035;28;20071;-83
2021/08/23 11:14:21;;;;;;;2.03;1.20;;;25.40;99.90;;;;;;5067796;28;20259;-83
2021/08/23 11:16:51;;;;;;;1.75;1.08;;;25.80;99.90;;;;;;5046638;28;20059;-85
2021/08/23 11:19:20;;;;;;;1.45;1.20;;;26.00;99.90;;;;;;5055889;28;20908;-82
2021/08/23 11:21:47;;;;;;;1.70;1.35;;;26.20;99.90;;;;;;5048745;28;20089;-84
2021/08/23 11:24:17;;;;;;;1.60;1.17;;;26.00;99.90;;;;;;5067446;28;20104;-82
2021/08/23 11:26:53;;;;;;;3.58;1.27;;;26.30;99.90;;;;;;5047131;28;20055;-84
2021/08/23 11:29:18;;;;;;;1.63;1.30;;;26.30;99.90;;;;;;5066814;28;20032;-85
2021/08/23 11:31:57;;;;;;;2.38;1.17;;;26.70;99.90;;;;;;5058743;28;20035;-82
2021/08/23 11:34:25;;;;;;;2.17;1.38;;;26.40;99.90;;;;;;5068302;28;20016;-82
2021/08/23 11:36:51;;;;;;;2.05;1.35;;;26.60;99.90;;;;;;5068425;28;20052;-82
2021/08/23 11:39:16;;;;;;;1.55;1.15;;;26.60;99.90;;;;;;5067942;28;20056;-83
2021/08/23 11:41:42;;;;;;;1.90;1.23;;;26.80;99.90;;;;;;5057813;28;20422;-82
2021/08/23 11:44:08;;;;;;;6.90;1.15;;;26.80;99.90;;;;;;5072347;28;20029;-83
2021/08/23 11:46:33;;;;;;;1.60;1.20;;;26.90;99.90;;;;;;5072378;28;20029;-84
2021/08/23 11:48:59;;;;;;;1.83;1.25;;;27.20;99.90;;;;;;5070423;28;20029;-85
2021/08/23 11:51:32;;;;;;;1.90;1.23;;;27.30;99.90;;;;;;5063174;28;20029;-84
2021/08/23 11:53:58;;;;;;;1.00;0.90;;;27.80;99.90;;;;;;5072011;28;20086;-82
2021/08/23 11:56:23;;;;;;;1.67;1.08;;;28.00;99.90;;;;;;5060713;28;20070;-83
2021/08/23 11:58:49;;;;;;;2.53;1.20;;;28.20;99.90;;;;;;5069640;28;20044;-81
2021/08/23 12:01:15;;;;;;;2.67;1.40;;;28.70;99.90;;;;;;5071782;28;20041;-82
2021/08/23 12:03:42;;;;;;;6.57;1.48;;;29.10;99.90;;;;;;5071765;28;20093;-83
2021/08/23 12:06:10;;;;;;;2.28;0.90;;;29.20;99.90;;;;;;5070663;28;20150;-82
2021/08/23 12:08:37;;;;;;;5.22;0.98;;;29.50;99.90;;;;;;5055065;28;20067;-82
2021/08/23 12:11:18;;;;;;;1.23;1.13;;;29.20;99.90;;;;;;5062654;28;20418;-82
2021/08/23 12:13:51;;;;;;;3.90;1.35;;;27.50;99.90;;;;;;5056864;28;20059;-82
2021/08/23 12:16:18;;;;;;;3.60;1.05;;;26.40;99.90;;;;;;5074932;28;20025;-83
2021/08/23 12:18:49;;;;;;;4.88;1.40;;;25.40;99.90;;;;;;5057004;28;20050;-83
2021/08/23 12:21:25;;;;;;;7.80;1.42;;;24.80;99.90;;;;;;5056693;28;20032;-84
2021/08/23 12:24:10;;;;;;;5.07;1.23;;;25.00;99.90;;;;;;5074224;28;20039;-83
2021/08/23 12:26:41;;;;;;;2.97;1.17;;;25.90;99.90;;;;;;5056833;28;20115;-83
2021/08/23 12:29:41;;;;;;;1.95;1.02;;;26.90;99.90;;;;;;5074823;28;20550;-82
2021/08/23 12:32:12;;;;;;;2.10;1.10;;;27.30;99.90;;;;;;5028011;28;20037;-84
2021/08/23 12:34:40;;;;;;;2.78;1.25;;;27.90;99.90;;;;;;5036293;28;20033;-81
2021/08/23 12:37:06;;;;;;;1.52;0.90;;;28.30;99.90;;;;;;5036584;28;20037;-82
2021/08/23 12:39:33;;;;;;;5.43;1.85;;;27.80;99.90;;;;;;5036516;28;20370;-83
2021/08/23 12:42:01;;;;;;;3.63;1.20;;;27.00;99.90;;;;;;5066411;28;20028;-80